createdAt,value
2022-11-29T00:00:19.158Z,8.36
2022-11-29T00:03:09.861Z,8.22
2022-11-29T00:08:37.094Z,8.27
2022-11-29T00:14:34.420Z,8.10
2022-11-29T00:17:24.139Z,8.18
2022-11-29T00:20:14.646Z,8.23
2022-11-29T00:25:43.931Z,8.39
2022-11-29T00:28:32.432Z,8.25
2022-11-29T00:31:22.913Z,8.24
2022-11-29T00:34:12.731Z,8.32
2022-11-29T00:39:43.554Z,8.32
2022-11-29T00:42:32.901Z,8.32
2022-11-29T00:48:08.374Z,8.39
2022-11-29T00:53:41.594Z,8.19
2022-11-29T00:59:17.606Z,8.17
2022-11-29T01:05:09.370Z,8.24
2022-11-29T01:10:48.453Z,8.26
2022-11-29T01:16:22.184Z,8.08
2022-11-29T01:21:59.365Z,8.08
2022-11-29T01:24:47.972Z,8.12
2022-11-29T01:30:25.429Z,8.19
2022-11-29T01:33:13.790Z,8.12
2022-11-29T01:38:46.137Z,8.11
2022-11-29T01:41:36.775Z,8.17
2022-11-29T01:45:03.955Z,8.27
2022-11-29T01:50:42.952Z,8.28
2022-11-29T01:53:32.726Z,8.24
2022-11-29T01:56:32.945Z,8.20
2022-11-29T01:59:23.243Z,8.17
2022-11-29T02:05:01.678Z,8.20
2022-11-29T02:10:40.250Z,8.24
2022-11-29T02:22:00.211Z,8.11
2022-11-29T02:28:46.478Z,8.28
2022-11-29T02:32:18.474Z,8.29
2022-11-29T02:38:09.650Z,8.28
2022-11-29T02:44:46.970Z,8.33
2022-11-29T02:47:41.230Z,8.27
2022-11-29T02:50:37.709Z,8.20
2022-11-29T02:53:30.968Z,8.22
2022-11-29T02:56:24.015Z,8.23
2022-11-29T02:59:16.061Z,8.24
2022-11-29T03:04:56.005Z,8.22
2022-11-29T03:10:38.438Z,8.27
2022-11-29T03:16:22.593Z,8.32
2022-11-29T03:24:55.852Z,8.24
2022-11-29T03:27:48.003Z,8.24
2022-11-29T03:33:23.730Z,8.26
2022-11-29T03:41:56.619Z,8.20
2022-11-29T03:47:29.378Z,8.23
2022-11-29T03:53:13.294Z,8.03
2022-11-29T03:56:04.791Z,7.90
2022-11-29T03:58:56.760Z,7.86
2022-11-29T04:02:19.629Z,7.94
2022-11-29T04:05:43.318Z,7.98
2022-11-29T04:09:06.981Z,7.88
2022-11-29T04:12:35.018Z,7.91
2022-11-29T04:19:12.551Z,8.00
2022-11-29T04:25:35.401Z,7.88
2022-11-29T04:31:28.115Z,7.94
2022-11-29T04:38:27.489Z,7.94
2022-11-29T04:47:39.297Z,7.67
2022-11-29T04:53:37.614Z,7.67
2022-11-29T04:59:27.661Z,7.83
2022-11-29T05:05:07.177Z,8.01
2022-11-29T05:08:01.578Z,8.00
2022-11-29T05:13:54.858Z,8.01
2022-11-29T05:16:52.362Z,7.96
2022-11-29T05:19:49.557Z,7.96
2022-11-29T05:22:41.490Z,7.92
2022-11-29T05:28:34.503Z,7.99
2022-11-29T05:34:41.364Z,8.05
2022-11-29T05:40:30.878Z,8.07
2022-11-29T05:43:49.551Z,8.02
2022-11-29T05:49:32.590Z,7.90
2022-11-29T05:52:24.933Z,7.91
2022-11-29T05:55:25.050Z,7.91
2022-11-29T06:11:51.031Z,7.77
2022-11-29T06:17:55.200Z,7.92
2022-11-29T06:20:55.467Z,7.67
2022-11-29T06:29:43.311Z,7.84
2022-11-29T06:35:40.485Z,7.76
2022-11-29T06:41:22.321Z,7.82
2022-11-29T06:44:12.971Z,7.87
2022-11-29T06:49:55.828Z,7.78
2022-11-29T06:55:30.104Z,7.79
2022-11-29T06:58:31.453Z,7.78
2022-11-29T07:01:23.538Z,7.82
2022-11-29T07:04:25.661Z,7.83
2022-11-29T07:09:59.444Z,7.72
2022-11-29T07:12:49.950Z,7.57
2022-11-29T07:15:39.173Z,7.65
2022-11-29T07:21:19.866Z,7.73
2022-11-29T07:24:11.912Z,7.84
2022-11-29T07:27:07.832Z,7.91
2022-11-29T07:30:05.791Z,7.88
2022-11-29T07:33:00.637Z,7.73
2022-11-29T07:38:34.713Z,7.99
2022-11-29T07:44:16.522Z,8.10
2022-11-29T07:49:44.859Z,7.97
2022-11-29T07:52:32.981Z,8.09
2022-11-29T07:55:22.966Z,8.12
2022-11-29T08:00:51.962Z,8.16
2022-11-29T08:06:27.882Z,8.24
2022-11-29T08:12:03.136Z,8.40
2022-11-29T08:17:39.034Z,8.23
2022-11-29T08:23:13.702Z,8.22
2022-11-29T08:26:03.165Z,8.31
2022-11-29T08:31:45.396Z,8.43
2022-11-29T08:37:17.860Z,8.49
2022-11-29T08:42:47.434Z,8.44
2022-11-29T08:48:23.057Z,8.76
2022-11-29T08:53:52.646Z,8.90
2022-11-29T08:59:29.023Z,9.02
2022-11-29T09:02:19.148Z,8.77
2022-11-29T09:07:51.881Z,8.85
2022-11-29T09:13:23.590Z,8.94
2022-11-29T09:19:02.040Z,8.92
2022-11-29T09:21:50.615Z,8.94
2022-11-29T09:24:39.200Z,9.11
2022-11-29T09:30:23.654Z,9.08
2022-11-29T09:36:00.156Z,9.11
2022-11-29T09:42:03.942Z,9.28
2022-11-29T09:45:00.523Z,9.19
2022-11-29T09:48:00.588Z,9.08
2022-11-29T09:50:51.651Z,9.15
2022-11-29T09:56:31.872Z,9.11
2022-11-29T10:02:21.127Z,9.35
2022-11-29T10:05:10.144Z,9.37
2022-11-29T10:10:49.844Z,9.55
2022-11-29T10:16:28.424Z,9.52
2022-11-29T10:25:00.658Z,9.51
2022-11-29T10:30:31.176Z,9.43
2022-11-29T10:36:04.159Z,9.43
2022-11-29T10:38:53.404Z,9.36
2022-11-29T10:44:29.150Z,9.32
2022-11-29T10:50:06.750Z,9.50
2022-11-29T10:55:45.644Z,9.57
2022-11-29T10:58:34.950Z,9.62
2022-11-29T11:04:17.110Z,9.61
2022-11-29T11:07:06.506Z,9.55
2022-11-29T11:13:03.639Z,9.45
2022-11-29T11:18:32.304Z,9.36
2022-11-29T11:24:06.481Z,9.55
2022-11-29T11:29:38.606Z,9.49
2022-11-29T11:35:23.033Z,9.54
2022-11-29T11:38:18.348Z,9.46
2022-11-29T11:41:12.472Z,9.35
2022-11-29T11:46:51.200Z,9.51
2022-11-29T11:52:28.846Z,9.59
2022-11-29T11:58:22.667Z,9.52
2022-11-29T12:01:21.194Z,9.36
2022-11-29T12:04:15.923Z,9.43
2022-11-29T12:13:02.740Z,9.66
2022-11-29T12:18:48.663Z,9.47
2022-11-29T12:24:45.771Z,9.47
2022-11-29T12:27:34.017Z,9.25
2022-11-29T12:33:33.786Z,9.13
2022-11-29T12:39:31.945Z,9.11
2022-11-29T12:45:18.632Z,9.21
2022-11-29T12:48:17.905Z,9.14
2022-11-29T13:00:10.689Z,9.43
2022-11-29T13:05:51.960Z,9.32
2022-11-29T13:14:43.374Z,9.13
2022-11-29T13:20:09.220Z,9.21
2022-11-29T13:23:02.185Z,9.36
2022-11-29T13:28:42.687Z,9.43
2022-11-29T13:31:32.318Z,9.40
2022-11-29T13:39:57.974Z,9.59
2022-11-29T13:49:01.408Z,9.43
2022-11-29T13:54:58.783Z,9.33
2022-11-29T14:00:39.107Z,9.16
2022-11-29T14:07:09.223Z,9.15
2022-11-29T14:10:09.438Z,9.16
2022-11-29T14:13:06.579Z,9.15
2022-11-29T14:16:03.087Z,9.15
2022-11-29T14:22:33.769Z,9.02
2022-11-29T14:28:33.003Z,9.03
2022-11-29T14:31:55.265Z,8.94
2022-11-29T14:34:50.219Z,8.89
2022-11-29T14:40:32.750Z,9.02
2022-11-29T14:46:27.736Z,8.73
2022-11-29T14:52:25.030Z,8.82
2022-11-29T14:55:32.693Z,8.68
2022-11-29T15:01:11.943Z,8.61
2022-11-29T15:06:53.071Z,8.61
2022-11-29T15:09:45.796Z,8.58
2022-11-29T15:12:40.415Z,8.60
2022-11-29T15:18:45.246Z,8.48
2022-11-29T15:24:40.298Z,8.30
2022-11-29T15:30:28.340Z,8.28
2022-11-29T15:36:11.008Z,8.29
2022-11-29T15:44:35.363Z,8.22
2022-11-29T15:47:28.832Z,8.18
2022-11-29T15:50:27.747Z,8.23
2022-11-29T15:56:18.113Z,7.97
2022-11-29T16:02:00.201Z,8.01
2022-11-29T16:07:35.942Z,8.04
2022-11-29T16:13:26.099Z,8.12
2022-11-29T16:22:03.672Z,8.00
2022-11-29T16:25:01.597Z,7.77
2022-11-29T16:33:28.134Z,7.87
2022-11-29T16:36:18.520Z,7.68
2022-11-29T16:39:10.240Z,7.72
2022-11-29T16:45:13.430Z,7.78
2022-11-29T16:51:20.632Z,7.86
2022-11-29T16:54:25.717Z,7.81
2022-11-29T16:57:13.930Z,7.71
2022-11-29T17:02:43.911Z,7.85
2022-11-29T17:05:32.261Z,7.76
2022-11-29T17:08:20.957Z,7.66
2022-11-29T17:13:56.153Z,7.57
2022-11-29T17:19:25.993Z,7.62
2022-11-29T17:24:59.059Z,7.68
2022-11-29T17:30:31.040Z,7.74
2022-11-29T17:36:07.364Z,7.73
2022-11-29T17:41:44.068Z,7.68
2022-11-29T17:44:33.777Z,7.73
2022-11-29T17:47:22.271Z,7.63
2022-11-29T17:52:52.516Z,7.69
2022-11-29T17:55:41.935Z,7.70
2022-11-29T18:01:40.989Z,7.77
2022-11-29T18:04:29.445Z,7.69
2022-11-29T18:10:03.976Z,7.61
2022-11-29T18:12:53.194Z,7.66
2022-11-29T18:15:43.769Z,7.73
2022-11-29T18:18:35.832Z,7.81
2022-11-29T18:24:09.368Z,7.72
2022-11-29T18:29:56.155Z,7.80
2022-11-29T18:32:46.372Z,7.70
2022-11-29T18:38:16.415Z,7.74
2022-11-29T18:44:02.717Z,7.66
2022-11-29T18:49:38.630Z,7.65
2022-11-29T18:52:26.794Z,7.59
2022-11-29T18:58:03.903Z,7.65
2022-11-29T19:03:36.233Z,7.63
2022-11-29T19:09:26.506Z,7.68
2022-11-29T19:12:14.811Z,7.64
2022-11-29T19:21:59.798Z,7.72
2022-11-29T19:27:28.708Z,7.70
2022-11-29T19:33:16.277Z,7.73
2022-11-29T19:41:31.478Z,7.72
2022-11-29T19:47:06.562Z,7.83
2022-11-29T19:52:47.020Z,7.66
2022-11-29T20:01:11.863Z,7.76
2022-11-29T20:06:48.847Z,7.67
2022-11-29T20:12:22.347Z,7.65
2022-11-29T20:17:55.800Z,7.73
2022-11-29T20:23:34.779Z,7.71
2022-11-29T20:29:04.464Z,7.65
2022-11-29T20:34:36.223Z,7.74
2022-11-29T20:43:39.901Z,7.60
2022-11-29T20:46:29.997Z,7.57
2022-11-29T20:54:47.278Z,7.61
2022-11-29T21:00:24.646Z,7.60
2022-11-29T21:06:10.817Z,7.74
2022-11-29T21:08:58.730Z,7.65
2022-11-29T21:11:48.038Z,7.66
2022-11-29T21:17:47.971Z,7.58
2022-11-29T21:27:28.232Z,7.57
2022-11-29T21:33:15.351Z,7.54
2022-11-29T21:39:05.191Z,7.66
2022-11-29T21:44:33.019Z,7.46
2022-11-29T21:50:10.357Z,7.64
2022-11-29T21:56:01.257Z,7.46
2022-11-29T21:58:50.306Z,7.46
2022-11-29T22:01:38.784Z,7.26
2022-11-29T22:07:12.584Z,7.04
2022-11-29T22:10:04.324Z,6.95
2022-11-29T22:12:58.112Z,6.92
2022-11-29T22:18:43.202Z,6.94
2022-11-29T22:24:20.745Z,6.76
2022-11-29T22:27:11.876Z,6.68
2022-11-29T22:30:00.570Z,6.46
2022-11-29T22:35:38.174Z,6.52
2022-11-29T22:38:26.761Z,6.47
2022-11-29T22:46:51.935Z,6.64
2022-11-29T22:52:23.220Z,6.77
2022-11-29T22:57:58.110Z,6.77
2022-11-29T23:03:29.357Z,6.79
2022-11-29T23:06:19.609Z,6.76
2022-11-29T23:11:57.568Z,6.59
2022-11-29T23:14:55.794Z,6.69
2022-11-29T23:20:24.176Z,6.52
2022-11-29T23:23:14.430Z,6.56
2022-11-29T23:26:02.907Z,6.57
2022-11-29T23:28:52.560Z,6.63
2022-11-29T23:31:41.352Z,6.59
2022-11-29T23:34:29.945Z,6.73
2022-11-29T23:37:18.778Z,6.71
2022-11-29T23:42:53.535Z,6.74
2022-11-29T23:45:42.062Z,6.80
2022-11-29T23:51:22.661Z,6.64
2022-11-29T23:56:51.691Z,6.62
2022-11-29T23:59:42.988Z,6.77
